Time;durP1;ratioP1;P1;durP2;ratioP2;P2;SDS_P1;SDS_P2;PMS_P1;PMS_P2;Temp;Humidity;BMP_temperature;BMP_pressure;BME280_temperature;BME280_humidity;BME280_pressure;Samples;Min_cycle;Max_cycle;Signal;HPM_P1;HPM_P2
2021/10/25 00:00:43;;;;;;;4.10;2.50;;;8.30;57.00;;;;;;5059353;28;20025;-40
2021/10/25 00:03:08;;;;;;;4.30;2.72;;;8.30;57.00;;;;;;5058843;28;20047;-39
2021/10/25 00:05:34;;;;;;;5.38;2.78;;;8.30;57.00;;;;;;5059140;28;20032;-37
2021/10/25 00:08:00;;;;;;;2.92;2.03;;;8.30;57.10;;;;;;5058509;28;20121;-40
2021/10/25 00:10:26;;;;;;;2.50;1.80;;;8.30;57.00;;;;;;5058601;28;20029;-39
2021/10/25 00:12:52;;;;;;;5.25;3.47;;;8.30;56.90;;;;;;5058636;28;20029;-39
2021/10/25 00:15:18;;;;;;;3.78;2.70;;;8.30;56.90;;;;;;5058795;28;20036;-39
2021/10/25 00:17:44;;;;;;;3.38;2.28;;;8.30;57.00;;;;;;5058228;28;20029;-39
2021/10/25 00:20:11;;;;;;;3.85;2.30;;;8.30;57.10;;;;;;5058837;28;20059;-34
2021/10/25 00:22:37;;;;;;;4.20;2.13;;;8.30;57.00;;;;;;5058604;28;20108;-39
2021/10/25 00:25:03;;;;;;;3.55;2.22;;;8.30;56.90;;;;;;5058835;28;20024;-34
2021/10/25 00:27:29;;;;;;;3.50;2.13;;;8.30;57.00;;;;;;5058026;28;20477;-39
2021/10/25 00:29:55;;;;;;;3.15;2.08;;;8.30;57.00;;;;;;5058797;28;20108;-40
2021/10/25 00:32:21;;;;;;;3.95;2.17;;;8.30;57.10;;;;;;5058027;28;20094;-40
2021/10/25 00:34:47;;;;;;;3.90;2.40;;;8.30;57.20;;;;;;5058389;28;20021;-34
2021/10/25 00:37:13;;;;;;;4.28;2.00;;;8.30;57.40;;;;;;5057792;28;20044;-39
2021/10/25 00:39:39;;;;;;;3.22;2.05;;;8.30;57.60;;;;;;5058487;28;20021;-35
2021/10/25 00:42:05;;;;;;;5.47;2.42;;;8.30;57.70;;;;;;5057806;28;20029;-40
2021/10/25 00:44:32;;;;;;;4.03;2.10;;;8.30;57.70;;;;;;5057547;28;20028;-40
2021/10/25 00:46:58;;;;;;;4.07;2.15;;;8.30;57.60;;;;;;5058014;28;20032;-33
2021/10/25 00:49:24;;;;;;;2.70;1.77;;;8.30;57.40;;;;;;5058220;28;20033;-40
2021/10/25 00:51:51;;;;;;;3.42;1.85;;;8.20;57.40;;;;;;5057772;28;20080;-39
2021/10/25 00:54:17;;;;;;;2.25;1.80;;;8.20;57.60;;;;;;5057773;28;20341;-33
2021/10/25 00:56:45;;;;;;;3.67;2.00;;;8.20;58.30;;;;;;5057327;28;20037;-38
2021/10/25 00:59:12;;;;;;;3.13;1.98;;;8.20;57.80;;;;;;5058224;28;20370;-33
2021/10/25 01:01:39;;;;;;;2.00;1.60;;;8.20;57.90;;;;;;5057487;28;20021;-34
2021/10/25 01:04:06;;;;;;;3.17;2.08;;;8.20;57.80;;;;;;5057725;28;20112;-38
2021/10/25 01:06:31;;;;;;;3.13;2.00;;;8.10;57.70;;;;;;5057699;28;20051;-38
2021/10/25 01:08:57;;;;;;;3.15;2.00;;;8.20;58.50;;;;;;5057856;28;20116;-35
2021/10/25 01:11:25;;;;;;;2.80;2.03;;;8.10;57.70;;;;;;5057113;28;20033;-39
2021/10/25 01:13:52;;;;;;;2.15;1.80;;;8.10;57.70;;;;;;5057812;28;20029;-34
2021/10/25 01:16:18;;;;;;;4.00;1.73;;;8.10;57.80;;;;;;5057625;28;20474;-40
2021/10/25 01:18:49;;;;;;;3.10;2.17;;;8.10;57.90;;;;;;5057001;28;20060;-34
2021/10/25 01:21:15;;;;;;;;;;;8.10;58.00;;;;;;5057853;28;20025;-33
2021/10/25 01:23:41;;;;;;;2.38;1.75;;;8.10;58.00;;;;;;5057215;28;20189;-33
2021/10/25 01:26:07;;;;;;;5.10;2.38;;;8.00;58.10;;;;;;5057325;28;20409;-38
2021/10/25 01:28:34;;;;;;;2.28;2.00;;;8.00;58.10;;;;;;5057091;28;20032;-38
2021/10/25 01:31:00;;;;;;;3.25;2.10;;;8.00;57.80;;;;;;5057328;28;20413;-34
2021/10/25 01:33:30;;;;;;;3.20;1.83;;;8.00;57.80;;;;;;5056909;28;20032;-33
2021/10/25 01:35:55;;;;;;;2.95;1.90;;;8.00;57.70;;;;;;5057563;28;20033;-38
2021/10/25 01:38:21;;;;;;;3.40;2.15;;;8.00;57.70;;;;;;5056748;28;20029;-34
2021/10/25 01:40:47;;;;;;;2.75;1.85;;;7.90;57.70;;;;;;5057506;28;20317;-38
2021/10/25 01:43:13;;;;;;;3.28;1.95;;;7.90;57.70;;;;;;5056869;28;20410;-38
2021/10/25 01:45:38;;;;;;;3.38;2.00;;;7.90;57.90;;;;;;5057248;28;20041;-38
2021/10/25 01:48:05;;;;;;;3.47;2.20;;;7.90;58.20;;;;;;5056685;28;20133;-34
2021/10/25 01:50:31;;;;;;;2.75;1.80;;;7.90;58.40;;;;;;5057044;28;20119;-34
2021/10/25 01:52:58;;;;;;;3.70;2.20;;;7.90;58.60;;;;;;5056754;28;20039;-41
2021/10/25 01:55:24;;;;;;;2.55;1.80;;;7.90;58.80;;;;;;5055848;28;20057;-35
2021/10/25 01:57:50;;;;;;;4.47;2.10;;;7.90;58.90;;;;;;5056142;28;20021;-35
2021/10/25 02:00:15;;;;;;;4.43;2.15;;;7.80;58.90;;;;;;5056907;28;20040;-34
2021/10/25 02:02:41;;;;;;;4.10;1.63;;;7.90;59.00;;;;;;5056352;28;20028;-34
2021/10/25 02:05:07;;;;;;;2.75;1.77;;;7.90;59.00;;;;;;5056824;28;20147;-39
2021/10/25 02:07:33;;;;;;;2.78;1.83;;;7.80;58.90;;;;;;5056432;28;20172;-39
2021/10/25 02:09:59;;;;;;;3.22;2.00;;;7.80;58.80;;;;;;5056881;28;20112;-34
2021/10/25 02:12:24;;;;;;;3.03;2.22;;;7.80;58.80;;;;;;5056467;28;20041;-38
2021/10/25 02:14:50;;;;;;;3.05;2.10;;;7.80;58.90;;;;;;5056610;28;20532;-40
2021/10/25 02:17:16;;;;;;;3.40;2.10;;;7.80;59.00;;;;;;5056301;28;20429;-38
2021/10/25 02:19:41;;;;;;;3.70;1.77;;;7.80;59.20;;;;;;5056374;28;20048;-33
2021/10/25 02:22:08;;;;;;;3.78;2.30;;;7.80;59.20;;;;;;5055983;28;20040;-39
2021/10/25 02:24:35;;;;;;;2.22;1.73;;;7.70;59.30;;;;;;5056417;28;20029;-39
2021/10/25 02:27:03;;;;;;;6.10;2.40;;;7.70;59.40;;;;;;5056261;28;20425;-39
2021/10/25 02:29:35;;;;;;;3.10;2.00;;;7.70;59.60;;;;;;5056108;28;20448;-34
2021/10/25 02:32:01;;;;;;;6.45;2.00;;;7.70;59.70;;;;;;5055912;28;20068;-34
2021/10/25 02:34:27;;;;;;;3.47;2.22;;;7.60;59.70;;;;;;5056379;28;20444;-39
2021/10/25 02:36:53;;;;;;;4.38;2.33;;;7.60;59.80;;;;;;5055616;28;20033;-35
2021/10/25 02:39:19;;;;;;;3.13;2.10;;;7.50;59.90;;;;;;5056171;28;20035;-34
2021/10/25 02:41:45;;;;;;;3.40;2.10;;;7.50;59.90;;;;;;5055957;28;20104;-40
2021/10/25 02:44:10;;;;;;;5.68;2.00;;;7.50;59.80;;;;;;5056041;28;20087;-38
2021/10/25 02:46:36;;;;;;;4.68;1.98;;;7.40;59.80;;;;;;5055576;28;20036;-39
2021/10/25 02:49:02;;;;;;;2.35;1.55;;;7.40;60.00;;;;;;5055822;28;20063;-40
2021/10/25 02:51:28;;;;;;;4.53;2.10;;;7.30;60.10;;;;;;5055835;28;20078;-39
2021/10/25 02:53:53;;;;;;;4.53;2.20;;;7.30;60.20;;;;;;5055749;28;20322;-34
2021/10/25 02:56:19;;;;;;;3.92;2.20;;;7.20;60.40;;;;;;5055884;28;20332;-35
2021/10/25 02:58:45;;;;;;;2.55;1.90;;;7.20;60.60;;;;;;5055574;28;20147;-40
2021/10/25 03:01:10;;;;;;;4.45;2.30;;;7.20;60.70;;;;;;5055914;28;20413;-35
2021/10/25 03:03:37;;;;;;;4.50;2.38;;;7.10;60.80;;;;;;5055510;28;20032;-39
2021/10/25 03:06:03;;;;;;;5.13;3.83;;;7.10;60.90;;;;;;5055571;28;20048;-39
2021/10/25 03:08:29;;;;;;;7.18;3.63;;;7.00;61.00;;;;;;5053919;28;20059;-34
2021/10/25 03:10:54;;;;;;;6.63;2.78;;;7.00;61.10;;;;;;5056030;28;20033;-34
2021/10/25 03:13:21;;;;;;;4.63;3.22;;;7.00;61.30;;;;;;5055290;28;20041;-34
2021/10/25 03:15:47;;;;;;;3.65;2.28;;;7.00;61.50;;;;;;5055903;28;20033;-35
2021/10/25 03:18:14;;;;;;;6.93;3.65;;;7.00;61.60;;;;;;5055049;28;20506;-39
2021/10/25 03:20:40;;;;;;;3.75;2.45;;;6.90;61.60;;;;;;5055899;28;20021;-39
2021/10/25 03:23:06;;;;;;;3.40;2.38;;;6.90;61.70;;;;;;5055305;28;20118;-38
2021/10/25 03:25:31;;;;;;;6.25;3.70;;;6.90;61.80;;;;;;5055747;28;20389;-34
2021/10/25 03:27:57;;;;;;;4.13;2.20;;;6.90;61.80;;;;;;5055164;28;20037;-39
2021/10/25 03:30:23;;;;;;;4.47;2.10;;;6.80;61.70;;;;;;5055679;28;20075;-39
2021/10/25 03:32:49;;;;;;;3.13;2.20;;;6.80;61.80;;;;;;5055092;28;20349;-39
2021/10/25 03:35:14;;;;;;;4.72;2.30;;;6.80;61.80;;;;;;5055189;28;20036;-34
2021/10/25 03:37:40;;;;;;;4.63;2.50;;;6.70;61.80;;;;;;5054841;28;20029;-39
2021/10/25 03:40:08;;;;;;;4.63;2.50;;;6.70;61.90;;;;;;5055601;28;20025;-38
2021/10/25 03:42:42;;;;;;;4.93;2.58;;;6.60;61.90;;;;;;5055355;28;20056;-34
2021/10/25 03:48:00;;;;;;;4.10;2.42;;;6.60;62.10;;;;;;5055407;28;20036;-39
2021/10/25 03:50:30;;;;;;;4.47;2.33;;;6.60;62.10;;;;;;5055575;28;20021;-38
2021/10/25 04:30:19;;;;;;;4.75;2.58;;;6.20;62.50;;;;;;5058240;28;20056;-33
2021/10/25 04:32:45;;;;;;;4.80;2.75;;;6.20;62.60;;;;;;5057858;28;20037;-35
2021/10/25 04:35:12;;;;;;;3.63;2.50;;;6.20;62.70;;;;;;5058349;28;20029;-41
2021/10/25 04:37:38;;;;;;;5.95;2.72;;;6.20;62.70;;;;;;5058002;28;20325;-34
2021/10/25 04:40:05;;;;;;;9.48;2.75;;;6.20;62.70;;;;;;5058308;28;20025;-34
2021/10/25 04:42:33;;;;;;;5.30;3.00;;;6.20;62.60;;;;;;5057482;28;20024;-35
2021/10/25 04:44:59;;;;;;;12.90;3.78;;;6.20;62.60;;;;;;5058347;28;20187;-39
2021/10/25 04:47:25;;;;;;;4.82;2.90;;;6.20;62.60;;;;;;5057661;28;20413;-38
2021/10/25 04:49:50;;;;;;;4.07;2.58;;;6.20;62.60;;;;;;5057968;28;20028;-39
2021/10/25 04:52:16;;;;;;;5.47;3.05;;;6.20;62.60;;;;;;5057526;28;20036;-34
2021/10/25 04:54:42;;;;;;;4.63;3.00;;;6.20;62.60;;;;;;5057305;28;20368;-33
2021/10/25 04:57:08;;;;;;;3.47;2.58;;;6.20;62.70;;;;;;5057191;28;20029;-34
2021/10/25 04:59:33;;;;;;;4.10;2.30;;;6.20;62.70;;;;;;5057758;28;20264;-33
2021/10/25 05:01:59;;;;;;;4.20;2.47;;;6.30;62.70;;;;;;5057711;28;20108;-40
2021/10/25 05:04:25;;;;;;;8.80;3.30;;;6.30;62.70;;;;;;5057572;28;20027;-38
2021/10/25 05:06:51;;;;;;;38.05;5.45;;;6.30;62.80;;;;;;5057328;28;20029;-35
2021/10/25 05:09:17;;;;;;;9.80;3.50;;;6.20;63.10;;;;;;5054760;28;20025;-39
2021/10/25 05:11:43;;;;;;;6.05;3.00;;;6.20;63.30;;;;;;5056196;28;20035;-33
2021/10/25 05:14:09;;;;;;;18.45;4.47;;;6.20;63.40;;;;;;5057387;28;20037;-33
2021/10/25 05:16:35;;;;;;;8.20;3.53;;;6.20;63.50;;;;;;5056959;28;20055;-39
2021/10/25 05:19:01;;;;;;;9.80;3.50;;;6.20;63.60;;;;;;5057057;28;20033;-39
2021/10/25 05:21:26;;;;;;;5.18;3.30;;;6.20;63.70;;;;;;5056967;28;20346;-40
2021/10/25 05:23:52;;;;;;;8.48;4.05;;;6.20;63.70;;;;;;5056636;28;20021;-34
2021/10/25 05:26:18;;;;;;;10.73;4.30;;;6.20;63.70;;;;;;5057036;28;20079;-39
2021/10/25 05:28:44;;;;;;;7.00;3.78;;;6.20;63.60;;;;;;5056641;28;20155;-34
2021/10/25 05:31:11;;;;;;;9.85;4.03;;;6.20;63.60;;;;;;5056758;28;20070;-34
2021/10/25 05:33:37;;;;;;;8.13;4.05;;;6.30;63.60;;;;;;5055247;28;20329;-39
2021/10/25 05:36:04;;;;;;;8.48;3.70;;;6.30;63.60;;;;;;5056911;28;20029;-39
2021/10/25 05:38:30;;;;;;;8.60;5.00;;;6.30;63.50;;;;;;5056237;28;20063;-39
2021/10/25 05:40:55;;;;;;;8.57;4.53;;;6.30;63.50;;;;;;5057176;28;20056;-34
2021/10/25 05:43:21;;;;;;;5.72;3.40;;;6.30;63.50;;;;;;5056503;28;20031;-41
2021/10/25 05:45:47;;;;;;;6.68;4.00;;;6.40;63.50;;;;;;5056830;28;20035;-40
2021/10/25 05:48:14;;;;;;;5.78;3.60;;;6.40;63.50;;;;;;5056981;28;20029;-39
2021/10/25 05:50:40;;;;;;;11.70;4.70;;;6.40;63.40;;;;;;5056892;28;20139;-35
2021/10/25 05:53:06;;;;;;;8.00;3.95;;;6.40;63.30;;;;;;5056282;28;20029;-34
2021/10/25 05:55:32;;;;;;;7.15;4.30;;;6.40;63.30;;;;;;5053382;28;20102;-39
2021/10/25 05:57:58;;;;;;;7.80;4.68;;;6.50;63.50;;;;;;5056356;28;20029;-39
2021/10/25 06:00:30;;;;;;;5.45;3.83;;;6.50;63.40;;;;;;5056419;28;20028;-34
2021/10/25 06:02:57;;;;;;;6.80;3.92;;;6.50;63.30;;;;;;5055842;28;20413;-41
2021/10/25 06:05:26;;;;;;;6.40;3.60;;;6.50;63.20;;;;;;5056367;28;20036;-33
2021/10/25 06:07:53;;;;;;;7.43;3.70;;;6.60;63.20;;;;;;5056079;28;20033;-33
2021/10/25 06:10:24;;;;;;;5.07;3.05;;;6.60;63.20;;;;;;5056258;28;20039;-32
2021/10/25 06:12:50;;;;;;;5.22;2.92;;;6.60;63.10;;;;;;5055860;28;20075;-33
2021/10/25 06:15:18;;;;;;;8.60;3.60;;;6.60;63.00;;;;;;5056175;28;20063;-40
2021/10/25 06:17:58;;;;;;;7.78;2.85;;;6.70;63.20;;;;;;5053969;28;20033;-41
2021/10/25 06:20:26;;;;;;;6.05;3.72;;;6.70;63.00;;;;;;5055701;28;20029;-32
2021/10/25 06:22:53;;;;;;;4.95;3.08;;;6.70;63.00;;;;;;5054223;28;20029;-34
2021/10/25 06:25:22;;;;;;;6.78;3.35;;;6.70;62.90;;;;;;5055990;28;20044;-40
2021/10/25 06:27:49;;;;;;;5.00;3.10;;;6.80;62.80;;;;;;5055437;28;20048;-34
2021/10/25 06:30:15;;;;;;;4.63;3.30;;;6.80;62.80;;;;;;5055823;28;20124;-34
2021/10/25 06:32:41;;;;;;;4.93;3.35;;;6.80;62.60;;;;;;5055518;28;20111;-40
2021/10/25 06:35:09;;;;;;;4.50;3.22;;;6.90;62.70;;;;;;5055836;28;20028;-39
2021/10/25 06:38:00;;;;;;;4.20;2.92;;;6.90;62.60;;;;;;5055240;28;20037;-41
2021/10/25 06:40:23;;;;;;;5.60;3.40;;;6.90;62.30;;;;;;5055728;28;20025;-34
2021/10/25 06:42:49;;;;;;;4.53;2.97;;;6.90;62.20;;;;;;5054959;28;20041;-39
2021/10/25 06:45:18;;;;;;;7.28;3.00;;;6.90;62.10;;;;;;5055551;28;20289;-33
2021/10/25 06:47:45;;;;;;;6.47;2.78;;;7.00;62.10;;;;;;5055878;28;20041;-39
2021/10/25 06:50:12;;;;;;;6.57;3.10;;;7.00;61.70;;;;;;5055692;28;20025;-34
2021/10/25 06:52:38;;;;;;;6.03;3.08;;;7.00;61.30;;;;;;5055551;28;20036;-34
2021/10/25 06:55:06;;;;;;;3.83;2.90;;;7.00;61.20;;;;;;5054901;28;20044;-40
2021/10/25 06:57:32;;;;;;;4.22;2.83;;;7.10;61.00;;;;;;5054655;28;20052;-40
2021/10/25 06:59:58;;;;;;;5.10;3.10;;;7.10;60.60;;;;;;5054873;28;20433;-41
2021/10/25 07:02:24;;;;;;;4.55;2.90;;;7.10;60.50;;;;;;5055012;28;20029;-41
2021/10/25 07:04:50;;;;;;;5.32;2.70;;;7.20;60.40;;;;;;5055481;28;20367;-34
2021/10/25 07:07:18;;;;;;;7.68;3.45;;;7.20;60.40;;;;;;5054769;28;20110;-40
2021/10/25 07:09:44;;;;;;;4.70;3.10;;;7.20;60.40;;;;;;5055397;28;20032;-34
2021/10/25 07:12:10;;;;;;;6.22;3.35;;;7.20;60.30;;;;;;5054322;28;20033;-34
2021/10/25 07:14:37;;;;;;;8.38;5.07;;;7.20;60.20;;;;;;5054878;28;20108;-41
2021/10/25 07:27:56;;;;;;;8.10;4.75;;;7.40;59.90;;;;;;5054930;28;20075;-33
2021/10/25 08:10:57;;;;;;;8.38;4.57;;;7.90;58.50;;;;;;5058824;28;20091;-34
2021/10/25 08:13:29;;;;;;;8.57;4.07;;;7.90;58.40;;;;;;5058236;28;20056;-38
2021/10/25 08:15:56;;;;;;;5.47;3.35;;;8.00;58.40;;;;;;5058040;28;20037;-33
2021/10/25 08:20:57;;;;;;;8.55;3.50;;;8.10;58.00;;;;;;5058929;28;20095;-33
2021/10/25 08:23:22;;;;;;;8.68;3.30;;;8.10;57.80;;;;;;5058405;28;20120;-39
2021/10/25 08:25:48;;;;;;;5.95;3.63;;;8.10;57.70;;;;;;5058735;28;20345;-33
2021/10/25 08:28:14;;;;;;;8.73;4.07;;;8.10;57.80;;;;;;5058113;28;20400;-41
2021/10/25 08:30:41;;;;;;;8.43;4.65;;;8.10;57.60;;;;;;5058476;28;20060;-34
2021/10/25 08:33:38;;;;;;;13.30;6.07;;;8.10;57.30;;;;;;5058145;28;20037;-35
2021/10/25 08:41:25;;;;;;;4.47;2.80;;;8.20;57.00;;;;;;5057285;28;20028;-33
2021/10/25 08:43:52;;;;;;;7.53;4.45;;;8.30;56.90;;;;;;5057964;28;20029;-33
2021/10/25 08:46:20;;;;;;;5.38;3.03;;;8.30;56.80;;;;;;5057781;28;20366;-33
2021/10/25 08:48:47;;;;;;;5.85;3.42;;;8.30;56.60;;;;;;5057972;28;20029;-40
2021/10/25 08:51:16;;;;;;;6.53;3.10;;;8.30;56.60;;;;;;5057662;28;20112;-34
2021/10/25 08:53:43;;;;;;;4.63;2.90;;;8.30;56.50;;;;;;5057564;28;20115;-41
2021/10/25 08:56:09;;;;;;;4.65;3.00;;;8.30;56.50;;;;;;5056334;28;20124;-35
2021/10/25 08:58:38;;;;;;;4.95;2.88;;;8.40;56.40;;;;;;5057339;28;20029;-40
2021/10/25 09:01:04;;;;;;;4.47;2.70;;;8.40;56.20;;;;;;5056310;28;20109;-34
2021/10/25 09:03:30;;;;;;;4.18;2.78;;;8.50;55.90;;;;;;5057512;28;20117;-41
2021/10/25 09:05:57;;;;;;;3.45;2.70;;;8.50;55.40;;;;;;5057639;28;20083;-34
2021/10/25 09:08:25;;;;;;;5.65;2.72;;;8.60;55.50;;;;;;5056978;28;20410;-34
2021/10/25 09:10:52;;;;;;;8.32;4.00;;;8.60;55.50;;;;;;5057607;28;20040;-34
2021/10/25 09:13:23;;;;;;;4.85;2.58;;;8.60;55.40;;;;;;5056167;28;20041;-34
2021/10/25 09:16:07;;;;;;;;;;;8.60;55.10;;;;;;5058165;28;20037;-33
2021/10/25 09:18:37;;;;;;;3.05;2.10;;;8.70;55.20;;;;;;5057115;28;20293;-33
2021/10/25 09:21:05;;;;;;;4.30;2.95;;;8.70;55.20;;;;;;5057359;28;20040;-34
2021/10/25 09:23:47;;;;;;;2.92;2.33;;;8.70;54.70;;;;;;5057174;28;20032;-40
2021/10/25 09:26:19;;;;;;;4.97;2.83;;;8.80;54.20;;;;;;5057108;28;20032;-38
2021/10/25 09:28:54;;;;;;;6.35;3.08;;;8.80;54.00;;;;;;5056824;28;20029;-40
2021/10/25 09:31:26;;;;;;;3.53;2.30;;;8.90;53.90;;;;;;5057006;28;20107;-34
2021/10/25 09:33:55;;;;;;;5.28;2.70;;;8.90;53.80;;;;;;5057218;28;20057;-34
2021/10/25 09:36:21;;;;;;;5.25;2.50;;;9.00;53.60;;;;;;5056889;28;20067;-40
2021/10/25 09:49:03;;;;;;;3.95;2.53;;;9.10;52.60;;;;;;5056602;28;20075;-41
2021/10/25 09:49:28;;;;;;;4.38;2.65;;;9.20;52.80;;;;;;5056546;28;20037;-33
2021/10/25 09:51:56;;;;;;;3.25;2.17;;;9.20;52.40;;;;;;5056504;28;20048;-39
2021/10/25 09:54:24;;;;;;;4.45;2.40;;;9.30;52.20;;;;;;5056161;28;20057;-41
2021/10/25 09:57:10;;;;;;;20.27;5.07;;;9.30;52.00;;;;;;5056437;28;20183;-34
2021/10/25 09:59:57;;;;;;;5.68;2.53;;;9.30;51.60;;;;;;5056683;28;20032;-34
2021/10/25 10:02:23;;;;;;;4.55;2.58;;;9.30;51.60;;;;;;5056203;28;20409;-40
2021/10/25 10:05:01;;;;;;;4.75;2.40;;;9.40;51.70;;;;;;5056571;28;20064;-40
2021/10/25 10:07:28;;;;;;;10.60;4.05;;;9.50;51.40;;;;;;5056110;28;20037;-39
2021/10/25 10:09:55;;;;;;;3.78;2.55;;;9.50;51.30;;;;;;5056289;28;20122;-34
2021/10/25 10:12:23;;;;;;;6.32;3.08;;;9.60;51.20;;;;;;5056109;28;20029;-34
2021/10/25 10:14:51;;;;;;;3.88;1.85;;;9.70;51.00;;;;;;5056218;28;20405;-34
2021/10/25 10:17:37;;;;;;;3.95;1.95;;;9.70;50.60;;;;;;5049088;28;20079;-40
2021/10/25 10:20:10;;;;;;;2.58;1.90;;;9.80;50.30;;;;;;5055982;28;20162;-34
2021/10/25 10:22:41;;;;;;;2.15;1.83;;;9.80;49.80;;;;;;5055984;28;20153;-44
2021/10/25 10:25:08;;;;;;;3.47;2.17;;;9.90;49.60;;;;;;5055860;28;20389;-34
2021/10/25 10:27:34;;;;;;;2.80;1.95;;;9.90;49.60;;;;;;5055603;28;20037;-33
2021/10/25 10:30:00;;;;;;;5.90;2.13;;;9.90;49.60;;;;;;5055930;28;20035;-34
2021/10/25 10:32:33;;;;;;;5.25;2.30;;;10.00;49.30;;;;;;5055821;28;20090;-39
2021/10/25 10:35:05;;;;;;;4.55;2.25;;;10.00;49.10;;;;;;5056229;28;20095;-36
2021/10/25 10:37:32;;;;;;;6.97;2.15;;;10.00;48.90;;;;;;5055284;28;20102;-35
2021/10/25 10:40:05;;;;;;;8.25;3.00;;;10.00;48.40;;;;;;5055513;28;20035;-35
2021/10/25 10:42:32;;;;;;;2.03;1.75;;;10.00;48.20;;;;;;5055472;28;20409;-35
2021/10/25 10:45:03;;;;;;;3.13;1.88;;;9.90;48.20;;;;;;5055870;28;20321;-33
2021/10/25 10:47:37;;;;;;;6.90;2.40;;;9.90;48.10;;;;;;5055191;28;20079;-40
2021/10/25 10:50:04;;;;;;;7.95;2.38;;;9.90;48.00;;;;;;5055596;28;20033;-38
2021/10/25 10:52:34;;;;;;;7.97;2.50;;;9.90;47.70;;;;;;5054974;28;20033;-33
2021/10/25 10:55:25;;;;;;;4.05;2.05;;;9.90;47.50;;;;;;5055053;28;20139;-35
2021/10/25 11:00:38;;;;;;;2.50;1.92;;;10.00;47.40;;;;;;5055486;28;20056;-35
2021/10/25 11:03:22;;;;;;;7.07;2.20;;;10.10;47.40;;;;;;5055090;28;20029;-34
2021/10/25 11:05:53;;;;;;;5.20;2.45;;;10.20;47.10;;;;;;5055614;28;20040;-34
2021/10/25 11:08:24;;;;;;;4.50;2.30;;;10.20;47.00;;;;;;5055181;28;20025;-34
2021/10/25 11:10:58;;;;;;;;;;;10.30;47.10;;;;;;5055933;28;20376;-39
2021/10/25 11:13:26;;;;;;;4.53;1.88;;;10.40;47.30;;;;;;5054685;28;19909;-34
2021/10/25 11:16:20;;;;;;;3.40;1.85;;;10.50;47.10;;;;;;5055461;28;20029;-34
2021/10/25 11:18:49;;;;;;;5.72;2.38;;;10.60;46.90;;;;;;5042305;28;20033;-35
2021/10/25 11:21:25;;;;;;;4.82;2.33;;;10.70;46.50;;;;;;5035097;28;20105;-34
2021/10/25 11:24:00;;;;;;;2.72;2.08;;;10.80;46.20;;;;;;5035334;28;20025;-40
2021/10/25 11:26:28;;;;;;;4.20;2.25;;;10.80;46.10;;;;;;5034670;28;20126;-35
2021/10/25 11:28:55;;;;;;;3.42;1.98;;;10.90;46.00;;;;;;5037444;28;20045;-34
2021/10/25 11:31:21;;;;;;;8.82;2.83;;;11.00;45.60;;;;;;5038812;28;20398;-34
2021/10/25 11:33:48;;;;;;;3.17;1.83;;;11.10;45.40;;;;;;5039370;28;20026;-34
2021/10/25 11:36:14;;;;;;;8.73;2.75;;;11.20;45.10;;;;;;5039054;28;20116;-39
2021/10/25 11:38:44;;;;;;;17.83;3.90;;;11.20;44.80;;;;;;5038919;28;20025;-33
2021/10/25 11:41:10;;;;;;;2.72;1.95;;;11.30;44.70;;;;;;5038952;28;20484;-34
2021/10/25 11:43:36;;;;;;;3.75;2.10;;;11.40;44.40;;;;;;5038721;28;20030;-39
2021/10/25 11:46:22;;;;;;;7.55;2.95;;;11.50;44.40;;;;;;5038815;28;20033;-35
2021/10/25 11:48:56;;;;;;;5.72;1.90;;;11.60;43.90;;;;;;5038672;28;20040;-40
2021/10/25 11:51:23;;;;;;;19.08;3.38;;;11.70;43.70;;;;;;5038397;28;20049;-40
2021/10/25 11:53:55;;;;;;;7.95;2.80;;;11.80;43.40;;;;;;5038747;28;20437;-34
2021/10/25 11:56:20;;;;;;;9.90;3.65;;;11.90;43.20;;;;;;5038368;28;20125;-34
2021/10/25 11:58:46;;;;;;;3.72;2.47;;;11.90;43.20;;;;;;5038450;28;20109;-40
2021/10/25 12:01:13;;;;;;;7.25;2.80;;;12.00;43.00;;;;;;5038360;28;20084;-33
2021/10/25 12:03:40;;;;;;;4.15;2.72;;;12.10;43.20;;;;;;5038525;28;20105;-39
2021/10/25 12:06:17;;;;;;;4.82;2.33;;;12.30;43.20;;;;;;5038479;28;20061;-39
2021/10/25 12:08:53;;;;;;;3.33;2.33;;;12.50;42.50;;;;;;5038405;28;20026;-34
2021/10/25 12:11:27;;;;;;;2.80;2.08;;;12.70;41.80;;;;;;5038232;28;20072;-34
2021/10/25 12:14:01;;;;;;;9.43;3.38;;;12.80;41.50;;;;;;5038618;28;20029;-40
2021/10/25 12:16:27;;;;;;;8.90;2.58;;;12.80;41.30;;;;;;5038003;28;20437;-40
2021/10/25 12:18:53;;;;;;;4.45;1.67;;;12.90;41.30;;;;;;5038475;28;20690;-34
2021/10/25 12:21:19;;;;;;;3.63;2.17;;;13.00;41.00;;;;;;5038094;28;20042;-41
2021/10/25 12:23:48;;;;;;;9.75;2.70;;;13.10;40.70;;;;;;5036722;28;20083;-41
2021/10/25 12:26:16;;;;;;;6.28;2.65;;;13.20;40.40;;;;;;5038200;28;20120;-33
2021/10/25 12:28:42;;;;;;;5.72;2.10;;;13.40;40.10;;;;;;5037903;28;20026;-40
2021/10/25 12:31:10;;;;;;;3.05;2.08;;;13.40;40.10;;;;;;5038007;28;20287;-34
2021/10/25 12:33:38;;;;;;;4.80;2.10;;;13.50;40.10;;;;;;5037788;28;20105;-34
2021/10/25 12:36:34;;;;;;;4.30;2.20;;;13.70;39.90;;;;;;5038042;28;20088;-34
2021/10/25 12:39:00;;;;;;;7.22;2.50;;;13.90;39.50;;;;;;5037980;28;20057;-34
2021/10/25 12:41:26;;;;;;;4.43;1.90;;;14.00;39.70;;;;;;5036462;28;20033;-41
2021/10/25 12:43:59;;;;;;;24.60;4.20;;;14.20;39.20;;;;;;5037514;28;20075;-45
2021/10/25 12:46:33;;;;;;;8.50;3.72;;;14.30;38.70;;;;;;5037434;28;20046;-40
2021/10/25 12:48:59;;;;;;;3.28;2.00;;;14.40;38.30;;;;;;5038017;28;20033;-40
2021/10/25 12:51:39;;;;;;;10.55;3.60;;;14.50;38.50;;;;;;5037670;28;20492;-40
2021/10/25 12:54:10;;;;;;;8.80;3.90;;;14.60;37.90;;;;;;5037480;28;20128;-35
2021/10/25 12:56:36;;;;;;;8.50;2.60;;;14.70;37.70;;;;;;5037482;28;20037;-40
2021/10/25 12:59:04;;;;;;;4.05;2.25;;;14.80;37.80;;;;;;5037762;28;20082;-40
2021/10/25 13:01:30;;;;;;;3.95;1.90;;;14.90;37.70;;;;;;5037349;28;20105;-39
2021/10/25 13:04:01;;;;;;;4.25;2.10;;;15.10;37.70;;;;;;5037592;28;20109;-40
2021/10/25 13:06:31;;;;;;;6.38;3.63;;;15.20;37.00;;;;;;5037103;28;20029;-33
2021/10/25 13:09:02;;;;;;;12.75;2.85;;;15.20;36.60;;;;;;5037414;28;20025;-34
2021/10/25 13:11:28;;;;;;;4.28;1.98;;;15.20;36.40;;;;;;5036691;28;20026;-33
2021/10/25 13:13:58;;;;;;;4.85;2.50;;;15.10;36.40;;;;;;5037121;28;20402;-40
2021/10/25 13:16:28;;;;;;;7.07;5.18;;;15.00;36.30;;;;;;5036693;28;20029;-35
2021/10/25 13:18:55;;;;;;;6.90;4.00;;;14.90;36.60;;;;;;5037162;28;20029;-39
2021/10/25 13:21:21;;;;;;;4.82;2.35;;;14.70;36.60;;;;;;5036645;28;20025;-41
2021/10/25 13:23:47;;;;;;;5.22;2.15;;;14.50;36.80;;;;;;5037057;28;20029;-34
2021/10/25 13:26:13;;;;;;;3.75;2.25;;;14.30;36.90;;;;;;5037066;28;20056;-40
2021/10/25 13:28:40;;;;;;;4.45;2.05;;;14.10;37.70;;;;;;5036473;28;20029;-34
2021/10/25 13:31:06;;;;;;;5.65;2.55;;;13.80;37.40;;;;;;5036472;28;20026;-34
2021/10/25 13:33:36;;;;;;;9.55;5.07;;;13.70;37.80;;;;;;5036662;28;20317;-39
2021/10/25 13:36:02;;;;;;;4.28;3.08;;;13.50;38.20;;;;;;5036594;28;20038;-40
2021/10/25 13:38:28;;;;;;;2.60;1.90;;;13.30;38.40;;;;;;5036546;28;20048;-40
2021/10/25 13:40:54;;;;;;;3.88;2.20;;;13.10;38.50;;;;;;5036963;28;20032;-34
2021/10/25 13:43:20;;;;;;;6.22;2.15;;;13.00;38.60;;;;;;5036396;28;20030;-34
2021/10/25 13:45:47;;;;;;;4.30;2.15;;;12.80;38.80;;;;;;5036535;28;20083;-33
2021/10/25 13:48:14;;;;;;;7.60;2.47;;;12.70;39.30;;;;;;5036712;28;20029;-34
2021/10/25 13:50:40;;;;;;;12.65;2.88;;;12.60;39.90;;;;;;5036396;28;20055;-41
2021/10/25 13:53:06;;;;;;;7.47;2.50;;;12.50;40.60;;;;;;5036524;28;20033;-39
2021/10/25 13:55:31;;;;;;;7.70;2.90;;;12.40;41.00;;;;;;5036133;28;20053;-34
2021/10/25 13:57:57;;;;;;;13.38;3.10;;;12.30;41.20;;;;;;5036390;28;20029;-34
2021/10/25 14:00:23;;;;;;;24.20;3.95;;;12.20;41.60;;;;;;5036300;28;20028;-38
2021/10/25 14:02:49;;;;;;;22.67;4.45;;;12.00;41.90;;;;;;5036476;28;20053;-33
2021/10/25 14:05:18;;;;;;;11.88;3.70;;;11.90;42.10;;;;;;5036555;28;20105;-34
2021/10/25 14:07:45;;;;;;;20.73;3.72;;;11.80;42.40;;;;;;5036299;28;20377;-40
2021/10/25 14:12:45;;;;;;;20.52;3.00;;;11.60;42.90;;;;;;5035990;28;20117;-35
2021/10/25 14:17:40;;;;;;;16.45;2.80;;;11.50;43.30;;;;;;5035690;28;20036;-39
2021/10/25 14:20:07;;;;;;;16.00;3.28;;;11.40;43.60;;;;;;5036224;28;20026;-34
2021/10/25 14:22:33;;;;;;;17.95;2.97;;;11.20;43.60;;;;;;5035823;28;20119;-34
2021/10/25 14:24:58;;;;;;;10.55;2.97;;;11.20;43.80;;;;;;5036385;28;20088;-34
2021/10/25 14:27:24;;;;;;;13.02;2.97;;;11.00;43.90;;;;;;5035734;28;20033;-39
2021/10/25 14:29:50;;;;;;;12.48;3.20;;;10.90;44.10;;;;;;5036163;28;20033;-40
2021/10/25 14:32:16;;;;;;;38.25;6.65;;;10.90;44.30;;;;;;5035490;28;20104;-40
2021/10/25 14:34:41;;;;;;;16.45;4.00;;;10.70;45.00;;;;;;5035745;28;20033;-40
2021/10/25 14:37:08;;;;;;;21.58;4.38;;;10.60;44.60;;;;;;5035421;28;20036;-41
2021/10/25 14:39:47;;;;;;;21.98;5.88;;;10.50;44.90;;;;;;5035913;28;20065;-35
2021/10/25 14:54:52;;;;;;;28.75;8.60;;;9.90;46.40;;;;;;5035707;28;20071;-40
2021/10/25 14:57:20;;;;;;;27.55;7.07;;;9.80;46.50;;;;;;5035272;28;20595;-41
2021/10/25 14:59:47;;;;;;;21.90;6.85;;;9.70;46.70;;;;;;5035542;28;20376;-40
2021/10/25 15:02:13;;;;;;;47.35;14.18;;;9.60;46.90;;;;;;5034967;28;20037;-40
2021/10/25 15:04:39;;;;;;;28.67;7.45;;;9.50;47.20;;;;;;5035275;28;20044;-34